createdAt,value
2018-06-30T00:00:20.473Z,75.60
2018-06-30T00:02:48.509Z,75.40
2018-06-30T00:05:17.042Z,76.10
2018-06-30T00:07:45.345Z,76.70
2018-06-30T00:10:16.379Z,76.40
2018-06-30T00:12:44.376Z,76.40
2018-06-30T00:15:12.416Z,77.50
2018-06-30T00:17:40.492Z,76.30
2018-06-30T00:20:08.541Z,76.00
2018-06-30T00:22:36.584Z,76.40
2018-06-30T00:25:04.653Z,76.40
2018-06-30T00:27:32.701Z,76.30
2018-06-30T00:30:00.964Z,75.80
2018-06-30T00:32:29.157Z,76.60
2018-06-30T00:34:57.202Z,76.80
2018-06-30T00:37:25.244Z,77.30
2018-06-30T00:39:53.285Z,76.70
2018-06-30T00:42:21.338Z,76.50
2018-06-30T00:44:49.380Z,77.00
2018-06-30T00:47:17.432Z,77.00
2018-06-30T00:49:45.477Z,78.00
2018-06-30T00:52:13.529Z,77.30
2018-06-30T00:54:41.570Z,76.90
2018-06-30T00:57:09.620Z,77.00
2018-06-30T00:59:37.653Z,77.10
2018-06-30T01:02:05.907Z,78.80
2018-06-30T01:04:33.944Z,78.40
2018-06-30T01:07:01.989Z,78.20
2018-06-30T01:09:30.038Z,78.50
2018-06-30T01:11:58.087Z,77.30
2018-06-30T01:14:26.144Z,78.30
2018-06-30T01:16:54.237Z,78.30
2018-06-30T01:19:22.276Z,78.20
2018-06-30T01:21:50.312Z,78.50
2018-06-30T01:24:18.361Z,78.50
2018-06-30T01:26:46.403Z,79.70
2018-06-30T01:29:14.450Z,79.10
2018-06-30T01:31:42.484Z,79.70
2018-06-30T01:34:10.533Z,79.70
2018-06-30T01:36:38.576Z,79.90
2018-06-30T01:39:08.368Z,79.50
2018-06-30T01:41:36.432Z,79.60
2018-06-30T01:44:05.000Z,80.10
2018-06-30T01:46:33.089Z,80.30
2018-06-30T01:49:01.154Z,80.40
2018-06-30T01:51:29.221Z,81.50
2018-06-30T01:53:57.276Z,81.50
2018-06-30T01:56:25.333Z,81.10
2018-06-30T01:58:53.409Z,81.40
2018-06-30T02:01:21.469Z,81.40
2018-06-30T02:03:49.533Z,82.00
2018-06-30T02:06:17.592Z,82.30
2018-06-30T02:08:45.653Z,82.00
2018-06-30T02:11:13.725Z,82.10
2018-06-30T02:13:41.792Z,82.10
2018-06-30T02:16:09.849Z,82.80
2018-06-30T02:18:37.912Z,83.50
2018-06-30T02:21:05.968Z,82.70
2018-06-30T02:23:34.049Z,82.40
2018-06-30T02:26:02.115Z,82.50
2018-06-30T02:28:30.189Z,82.20
2018-06-30T02:30:58.265Z,83.00
2018-06-30T02:33:26.316Z,82.90
2018-06-30T02:35:54.377Z,82.60
2018-06-30T02:38:22.437Z,83.00
2018-06-30T02:40:50.512Z,82.60
2018-06-30T02:43:18.561Z,82.70
2018-06-30T02:45:46.626Z,83.20
2018-06-30T02:48:14.685Z,83.20
2018-06-30T02:50:42.745Z,83.40
2018-06-30T02:53:10.815Z,84.10
2018-06-30T02:55:38.873Z,83.90
2018-06-30T02:58:06.940Z,84.10
2018-06-30T03:00:35.013Z,84.10
2018-06-30T03:03:03.073Z,83.50
2018-06-30T03:05:31.139Z,84.10
2018-06-30T03:07:59.189Z,83.80
2018-06-30T03:10:27.253Z,83.60
2018-06-30T03:12:55.305Z,84.00
2018-06-30T03:15:23.373Z,84.70
2018-06-30T03:17:51.428Z,84.40
2018-06-30T03:20:19.501Z,84.10
2018-06-30T03:22:47.553Z,84.00
2018-06-30T03:25:15.617Z,84.70
2018-06-30T03:27:43.704Z,85.20
2018-06-30T03:30:11.789Z,84.60
2018-06-30T03:32:39.849Z,84.60
2018-06-30T03:35:07.904Z,84.20
2018-06-30T03:37:35.980Z,85.30
2018-06-30T03:42:31.902Z,85.10
2018-06-30T03:44:59.950Z,85.70
2018-06-30T03:47:28.024Z,86.10
2018-06-30T03:49:56.073Z,86.60
2018-06-30T03:52:24.129Z,86.60
2018-06-30T03:54:52.184Z,86.80
2018-06-30T03:57:20.253Z,87.40
2018-06-30T03:59:48.309Z,87.40
2018-06-30T04:02:16.371Z,87.50
2018-06-30T04:04:44.505Z,87.60
2018-06-30T04:07:12.581Z,88.20
2018-06-30T04:09:40.640Z,87.90
2018-06-30T04:12:08.706Z,88.10
2018-06-30T04:14:36.784Z,89.30
2018-06-30T04:17:04.989Z,89.20
2018-06-30T04:19:33.044Z,90.10
2018-06-30T04:22:01.132Z,90.40
2018-06-30T04:24:29.185Z,90.40
2018-06-30T04:26:57.249Z,90.40
2018-06-30T04:29:25.309Z,90.50
2018-06-30T04:31:53.370Z,90.50
2018-06-30T04:34:21.424Z,90.60
2018-06-30T04:36:49.477Z,90.20
2018-06-30T04:39:17.541Z,90.40
2018-06-30T04:41:45.652Z,90.90
2018-06-30T04:44:13.712Z,90.60
2018-06-30T04:46:41.770Z,90.60
2018-06-30T04:49:09.837Z,90.80
2018-06-30T04:51:37.897Z,90.70
2018-06-30T04:54:05.960Z,90.60
2018-06-30T04:56:34.020Z,90.60
2018-06-30T04:59:02.093Z,90.40
2018-06-30T05:01:30.153Z,90.20
2018-06-30T05:06:26.063Z,90.00
2018-06-30T05:08:54.129Z,90.10
2018-06-30T05:11:28.704Z,90.50
2018-06-30T05:13:56.773Z,90.10
2018-06-30T05:16:24.830Z,90.20
2018-06-30T05:18:52.904Z,90.40
2018-06-30T05:21:20.956Z,90.30
2018-06-30T05:23:49.018Z,90.20
2018-06-30T05:26:17.073Z,90.20
2018-06-30T05:28:45.137Z,90.20
2018-06-30T05:31:13.194Z,90.40
2018-06-30T05:33:41.390Z,90.50
2018-06-30T05:36:09.324Z,90.00
2018-06-30T05:38:37.390Z,90.00
2018-06-30T05:41:05.570Z,90.30
2018-06-30T05:46:01.429Z,90.10
2018-06-30T05:48:29.457Z,90.00
2018-06-30T05:50:57.507Z,90.10
2018-06-30T05:53:25.553Z,89.50
2018-06-30T05:55:53.603Z,89.30
2018-06-30T05:58:21.633Z,90.00
2018-06-30T06:00:49.697Z,89.60
2018-06-30T06:03:17.728Z,89.30
2018-06-30T06:05:45.769Z,88.50
2018-06-30T06:08:13.813Z,89.00
2018-06-30T06:10:41.877Z,88.00
2018-06-30T06:13:09.915Z,88.40
2018-06-30T06:15:37.961Z,86.60
2018-06-30T06:18:05.996Z,86.40
2018-06-30T06:20:34.041Z,86.00
2018-06-30T06:23:02.082Z,86.10
2018-06-30T06:25:30.125Z,82.80
2018-06-30T06:27:58.156Z,80.60
2018-06-30T06:30:26.208Z,77.90
2018-06-30T06:32:54.334Z,74.10
2018-06-30T06:35:22.306Z,72.00
2018-06-30T06:37:50.449Z,68.90
2018-06-30T06:40:18.504Z,66.70
2018-06-30T06:42:46.552Z,64.60
2018-06-30T06:45:14.597Z,62.10
2018-06-30T06:47:42.648Z,61.10
2018-06-30T06:50:10.689Z,59.40
2018-06-30T06:52:38.736Z,57.30
2018-06-30T06:55:06.778Z,55.50
2018-06-30T06:57:34.825Z,53.90
2018-06-30T07:00:02.873Z,53.60
2018-06-30T07:02:30.924Z,52.20
2018-06-30T07:04:59.792Z,52.10
2018-06-30T07:07:27.841Z,49.50
2018-06-30T07:09:55.880Z,50.10
2018-06-30T07:12:23.970Z,49.60
2018-06-30T07:14:51.977Z,49.90
2018-06-30T07:17:20.031Z,49.00
2018-06-30T07:19:48.061Z,50.10
2018-06-30T07:22:16.107Z,50.20
2018-06-30T07:24:44.141Z,50.50
2018-06-30T07:27:12.204Z,51.50
2018-06-30T07:29:40.276Z,52.20
2018-06-30T07:32:08.341Z,53.90
2018-06-30T07:34:36.388Z,53.80
2018-06-30T07:37:04.449Z,55.20
2018-06-30T07:39:32.492Z,55.70
2018-06-30T07:42:00.700Z,54.60
2018-06-30T07:44:28.757Z,56.60
2018-06-30T07:46:56.820Z,57.90
2018-06-30T07:49:24.888Z,59.00
2018-06-30T07:51:52.961Z,58.00
2018-06-30T07:54:21.029Z,58.10
2018-06-30T07:56:49.096Z,59.20
2018-06-30T07:59:17.172Z,59.30
2018-06-30T08:01:45.241Z,59.30
2018-06-30T08:04:13.324Z,58.90
2018-06-30T08:06:41.400Z,58.50
2018-06-30T08:09:10.485Z,59.80
2018-06-30T08:11:38.957Z,60.00
2018-06-30T08:14:07.026Z,59.10
2018-06-30T08:16:35.091Z,59.40
2018-06-30T08:19:03.181Z,57.70
2018-06-30T08:21:31.244Z,59.20
2018-06-30T08:23:59.308Z,59.60
2018-06-30T08:26:27.369Z,58.30
2018-06-30T08:28:55.430Z,58.80
2018-06-30T08:31:23.637Z,57.70
2018-06-30T08:33:51.736Z,57.60
2018-06-30T08:36:19.819Z,57.70
2018-06-30T08:38:47.865Z,58.30
2018-06-30T08:41:15.925Z,58.30
2018-06-30T08:43:43.972Z,57.60
2018-06-30T08:46:12.000Z,57.10
2018-06-30T08:48:40.049Z,57.30
2018-06-30T08:51:08.129Z,57.00
2018-06-30T08:53:36.156Z,56.90
2018-06-30T08:56:04.215Z,56.70
2018-06-30T08:58:32.248Z,57.20
2018-06-30T09:01:00.401Z,55.70
2018-06-30T09:03:28.440Z,55.80
2018-06-30T09:05:56.489Z,56.00
2018-06-30T09:08:24.529Z,55.90
2018-06-30T09:10:52.576Z,55.90
2018-06-30T09:13:20.618Z,56.70
2018-06-30T09:15:48.665Z,55.70
2018-06-30T09:18:16.704Z,53.70
2018-06-30T09:20:44.756Z,55.20
2018-06-30T09:23:12.801Z,55.50
2018-06-30T09:25:40.845Z,55.10
2018-06-30T09:28:08.884Z,55.40
2018-06-30T09:30:36.928Z,54.80
2018-06-30T09:33:04.965Z,54.60
2018-06-30T09:35:33.016Z,54.80
2018-06-30T09:38:01.135Z,54.00
2018-06-30T09:40:29.132Z,54.40
2018-06-30T09:42:57.193Z,54.30
2018-06-30T09:45:25.255Z,53.40
2018-06-30T09:47:53.309Z,52.90
2018-06-30T09:52:49.212Z,52.10
2018-06-30T09:55:17.288Z,53.20
2018-06-30T09:57:45.341Z,51.90
2018-06-30T10:00:17.657Z,52.20
2018-06-30T10:02:45.736Z,53.00
2018-06-30T10:05:13.804Z,51.20
2018-06-30T10:07:41.868Z,51.90
2018-06-30T10:10:09.937Z,51.30
2018-06-30T10:12:38.024Z,50.70
2018-06-30T10:15:06.065Z,52.10
2018-06-30T10:17:34.191Z,49.80
2018-06-30T10:20:02.243Z,51.10
2018-06-30T10:22:30.304Z,50.70
2018-06-30T10:24:58.377Z,50.00
2018-06-30T10:27:26.441Z,49.50
2018-06-30T10:29:54.505Z,50.90
2018-06-30T10:32:22.573Z,48.60
2018-06-30T10:34:50.633Z,49.50
2018-06-30T10:37:18.749Z,48.40
2018-06-30T10:39:46.770Z,48.90
2018-06-30T10:42:14.858Z,49.90
2018-06-30T10:44:42.981Z,48.20
2018-06-30T10:47:11.033Z,48.30
2018-06-30T10:49:39.068Z,48.90
2018-06-30T10:52:07.118Z,48.80
2018-06-30T10:54:35.162Z,48.20
2018-06-30T10:57:03.229Z,48.40
2018-06-30T10:59:31.272Z,47.90
2018-06-30T11:01:59.326Z,46.60
2018-06-30T11:04:27.377Z,46.90
2018-06-30T11:06:55.417Z,46.90
2018-06-30T11:09:23.464Z,47.90
2018-06-30T11:11:51.513Z,47.30
2018-06-30T11:14:19.557Z,46.90
2018-06-30T11:16:47.592Z,47.80
2018-06-30T11:19:15.645Z,46.60
2018-06-30T11:21:43.685Z,47.20
2018-06-30T11:24:11.741Z,45.20
2018-06-30T11:26:39.780Z,44.40
2018-06-30T11:29:07.832Z,46.40
2018-06-30T11:31:35.870Z,45.80
2018-06-30T11:34:03.917Z,45.50
2018-06-30T11:36:31.964Z,45.90
2018-06-30T11:39:00.010Z,46.00
2018-06-30T11:41:28.062Z,44.90
2018-06-30T11:43:56.104Z,46.50
2018-06-30T11:46:24.141Z,45.30
2018-06-30T11:48:52.196Z,45.80
2018-06-30T11:51:20.232Z,45.40
2018-06-30T11:53:48.269Z,44.20
2018-06-30T11:56:16.308Z,45.00
2018-06-30T11:58:44.345Z,46.90
2018-06-30T12:01:12.391Z,45.60
2018-06-30T12:03:40.429Z,43.60
2018-06-30T12:06:08.477Z,45.80
2018-06-30T12:08:36.511Z,46.50
2018-06-30T12:11:04.570Z,44.80
2018-06-30T12:13:32.697Z,44.60
2018-06-30T12:16:00.741Z,45.40
2018-06-30T12:18:28.777Z,45.30
2018-06-30T12:20:56.824Z,43.40
2018-06-30T12:23:24.856Z,44.70
2018-06-30T12:25:52.913Z,44.50
2018-06-30T12:28:20.945Z,44.60
2018-06-30T12:30:48.992Z,43.40
2018-06-30T12:33:17.032Z,43.00
2018-06-30T12:35:45.081Z,43.50
2018-06-30T12:38:13.128Z,44.00
2018-06-30T12:40:41.180Z,43.20
2018-06-30T12:43:09.224Z,43.60
2018-06-30T12:45:37.273Z,44.10
2018-06-30T12:48:05.316Z,42.40
2018-06-30T12:50:33.368Z,43.50
2018-06-30T12:53:01.414Z,43.90
2018-06-30T12:55:29.465Z,43.40
2018-06-30T12:57:57.504Z,44.30
2018-06-30T13:00:25.545Z,42.70
2018-06-30T13:02:53.604Z,42.90
2018-06-30T13:05:21.653Z,44.00
2018-06-30T13:07:49.956Z,45.10
2018-06-30T13:10:17.997Z,45.00
2018-06-30T13:12:46.053Z,43.90
2018-06-30T13:15:14.100Z,43.70
2018-06-30T13:17:42.159Z,44.90
2018-06-30T13:20:10.186Z,44.00
2018-06-30T13:22:38.224Z,44.30
2018-06-30T13:25:06.277Z,44.10
2018-06-30T13:27:34.327Z,44.50
2018-06-30T13:30:02.366Z,44.90
2018-06-30T13:34:58.323Z,45.10
2018-06-30T13:37:26.373Z,44.00
2018-06-30T13:39:54.786Z,44.00
2018-06-30T13:42:22.873Z,43.70
2018-06-30T13:44:50.924Z,43.90
2018-06-30T13:47:19.005Z,43.30
2018-06-30T13:49:47.075Z,44.30
2018-06-30T13:52:15.132Z,43.90
2018-06-30T13:54:43.201Z,42.90
2018-06-30T13:57:11.291Z,42.90
2018-06-30T13:59:39.340Z,45.00
2018-06-30T14:02:07.651Z,45.20
2018-06-30T14:04:35.709Z,44.00
2018-06-30T14:07:03.803Z,43.60
2018-06-30T14:09:31.862Z,44.60
2018-06-30T14:11:59.921Z,45.00
2018-06-30T14:14:27.989Z,44.30
2018-06-30T14:16:56.220Z,45.10
2018-06-30T14:19:24.280Z,45.50
2018-06-30T14:21:52.606Z,45.10
2018-06-30T14:24:20.681Z,44.40
2018-06-30T14:26:48.732Z,45.00
2018-06-30T14:29:16.801Z,45.00
2018-06-30T14:31:44.873Z,44.60
2018-06-30T14:34:12.933Z,44.20
2018-06-30T14:36:40.992Z,43.90
2018-06-30T14:39:10.525Z,45.40
2018-06-30T14:41:38.617Z,44.70
2018-06-30T14:44:06.717Z,45.20
2018-06-30T14:46:34.993Z,46.20
2018-06-30T14:49:03.304Z,44.30
2018-06-30T14:51:31.523Z,45.20
2018-06-30T14:53:59.585Z,45.00
2018-06-30T14:56:27.641Z,45.30
2018-06-30T14:58:55.869Z,46.20
2018-06-30T15:01:24.105Z,45.60
2018-06-30T15:03:52.173Z,46.30
2018-06-30T15:06:20.257Z,46.20
2018-06-30T15:08:48.340Z,46.10
2018-06-30T15:11:16.404Z,45.90
2018-06-30T15:13:44.470Z,47.30
2018-06-30T15:16:12.544Z,46.70
2018-06-30T15:18:40.618Z,46.30
2018-06-30T15:21:08.693Z,48.40
2018-06-30T15:23:36.752Z,47.20
2018-06-30T15:26:05.044Z,47.30
2018-06-30T15:28:33.122Z,47.60
2018-06-30T15:31:01.188Z,47.90
2018-06-30T15:33:29.256Z,48.40
2018-06-30T15:35:57.395Z,47.70
2018-06-30T15:38:25.420Z,48.80
2018-06-30T15:40:53.500Z,49.30
2018-06-30T15:43:21.564Z,48.00
2018-06-30T15:45:49.658Z,47.70
2018-06-30T15:48:17.709Z,49.80
2018-06-30T15:50:45.777Z,47.40
2018-06-30T15:53:13.832Z,48.70
2018-06-30T15:55:41.914Z,47.60
2018-06-30T15:58:09.996Z,47.70
2018-06-30T16:03:06.017Z,49.00
2018-06-30T16:05:34.089Z,47.90
2018-06-30T16:08:02.153Z,47.70
2018-06-30T16:10:30.236Z,47.40
2018-06-30T16:12:58.304Z,50.90
2018-06-30T16:17:54.316Z,48.30
2018-06-30T16:20:22.388Z,49.30
2018-06-30T16:22:50.462Z,51.30
2018-06-30T16:25:18.528Z,49.90
2018-06-30T16:27:46.604Z,50.10
2018-06-30T16:30:14.680Z,50.10
2018-06-30T16:32:42.744Z,52.00
2018-06-30T16:35:10.871Z,50.90
2018-06-30T16:37:38.885Z,50.10
2018-06-30T16:40:06.973Z,49.40
2018-06-30T16:42:35.043Z,50.60
2018-06-30T16:45:03.148Z,49.50
2018-06-30T16:47:31.201Z,50.90
2018-06-30T16:49:59.248Z,51.20
2018-06-30T16:52:27.292Z,51.10
2018-06-30T16:54:55.336Z,51.30
2018-06-30T16:57:23.428Z,50.60
2018-06-30T17:02:19.400Z,52.10
2018-06-30T17:04:47.488Z,53.80
2018-06-30T17:07:15.552Z,52.00
2018-06-30T17:09:43.597Z,51.60
2018-06-30T17:12:11.660Z,49.00
2018-06-30T17:14:39.712Z,51.50
2018-06-30T17:17:07.941Z,52.00
2018-06-30T17:19:36.134Z,50.00
2018-06-30T17:22:04.181Z,50.80
2018-06-30T17:24:32.240Z,51.10
2018-06-30T17:27:00.301Z,52.20
2018-06-30T17:29:28.376Z,49.70
2018-06-30T17:31:56.420Z,51.00
2018-06-30T17:34:24.505Z,51.20
2018-06-30T17:36:52.556Z,48.90
2018-06-30T17:39:20.617Z,50.60
2018-06-30T17:41:48.673Z,52.30
2018-06-30T17:44:16.784Z,51.90
2018-06-30T17:46:44.840Z,50.40
2018-06-30T17:49:12.896Z,51.20
2018-06-30T17:51:40.945Z,50.90
2018-06-30T17:54:09.315Z,52.20
2018-06-30T17:56:37.376Z,52.20
2018-06-30T17:59:05.449Z,51.30
2018-06-30T18:01:33.489Z,51.80
2018-06-30T18:04:01.533Z,50.40
2018-06-30T18:06:29.738Z,51.80
2018-06-30T18:08:57.784Z,52.80
2018-06-30T18:11:25.841Z,51.70
2018-06-30T18:13:53.893Z,52.20
2018-06-30T18:16:21.948Z,53.00
2018-06-30T18:18:50.020Z,50.30
2018-06-30T18:21:18.041Z,49.30
2018-06-30T18:23:46.241Z,49.90
2018-06-30T18:26:14.280Z,50.20
2018-06-30T18:28:42.337Z,50.50
2018-06-30T18:31:10.396Z,50.60
2018-06-30T18:33:38.452Z,50.90
2018-06-30T18:36:06.509Z,51.30
2018-06-30T18:38:34.560Z,51.30
2018-06-30T18:41:02.618Z,51.00
2018-06-30T18:43:30.675Z,52.00
2018-06-30T18:45:58.709Z,53.00
2018-06-30T18:48:26.753Z,50.00
2018-06-30T18:50:54.809Z,49.00
2018-06-30T18:53:22.853Z,51.00
2018-06-30T18:55:50.896Z,49.80
2018-06-30T18:58:18.960Z,49.30
2018-06-30T19:00:46.992Z,48.70
2018-06-30T19:03:15.118Z,48.50
2018-06-30T19:05:43.099Z,49.20
2018-06-30T19:08:11.137Z,47.10
2018-06-30T19:10:39.185Z,47.50
2018-06-30T19:13:07.234Z,46.70
2018-06-30T19:15:35.512Z,49.30
2018-06-30T19:18:03.573Z,48.90
2018-06-30T19:20:31.625Z,48.70
2018-06-30T19:22:59.681Z,48.10
2018-06-30T19:25:27.732Z,49.10
2018-06-30T19:27:55.781Z,49.60
2018-06-30T19:30:23.910Z,49.50
2018-06-30T19:32:51.917Z,48.80
2018-06-30T19:35:19.964Z,50.00
2018-06-30T19:37:48.284Z,49.60
2018-06-30T19:40:16.365Z,49.00
2018-06-30T19:42:44.417Z,49.60
2018-06-30T19:45:12.456Z,48.70
2018-06-30T19:47:40.508Z,49.30
2018-06-30T19:50:08.544Z,49.20
2018-06-30T19:52:36.596Z,50.60
2018-06-30T19:55:04.669Z,51.30
2018-06-30T19:57:32.760Z,50.00
2018-06-30T20:00:00.812Z,50.80
2018-06-30T20:02:28.855Z,50.80
2018-06-30T20:04:56.892Z,51.20
2018-06-30T20:07:24.945Z,50.00
2018-06-30T20:09:53.042Z,50.70
2018-06-30T20:12:21.112Z,50.20
2018-06-30T20:14:49.158Z,50.80
2018-06-30T20:17:17.211Z,51.40
2018-06-30T20:19:45.253Z,51.00
2018-06-30T20:22:13.316Z,51.40
2018-06-30T20:24:41.356Z,49.50
2018-06-30T20:27:09.405Z,49.10
2018-06-30T20:29:37.449Z,50.40
2018-06-30T20:32:05.507Z,51.80
2018-06-30T20:34:33.556Z,51.50
2018-06-30T20:37:01.609Z,51.80
2018-06-30T20:39:29.656Z,53.00
2018-06-30T20:41:57.710Z,52.60
2018-06-30T20:44:25.755Z,54.00
2018-06-30T20:46:53.797Z,52.30
2018-06-30T20:49:21.848Z,51.50
2018-06-30T20:51:49.880Z,52.90
2018-06-30T20:54:18.054Z,51.80
2018-06-30T20:56:45.982Z,52.50
2018-06-30T20:59:14.035Z,52.00
2018-06-30T21:01:42.141Z,51.70
2018-06-30T21:04:10.116Z,53.50
2018-06-30T21:06:39.163Z,53.40
2018-06-30T21:09:08.733Z,53.70
2018-06-30T21:11:37.020Z,53.00
2018-06-30T21:14:05.081Z,53.50
2018-06-30T21:16:33.178Z,53.80
2018-06-30T21:19:01.377Z,53.50
2018-06-30T21:21:29.441Z,52.90
2018-06-30T21:23:57.652Z,53.00
2018-06-30T21:26:25.688Z,53.50
2018-06-30T21:28:53.733Z,53.40
2018-06-30T21:31:21.843Z,53.70
2018-06-30T21:33:50.101Z,53.80
2018-06-30T21:36:18.278Z,54.40
2018-06-30T21:38:46.329Z,54.60
2018-06-30T21:41:14.425Z,55.00
2018-06-30T21:43:42.424Z,54.70
2018-06-30T21:46:10.468Z,54.50
2018-06-30T21:48:38.516Z,55.30
2018-06-30T21:51:06.552Z,55.40
2018-06-30T21:53:34.604Z,54.60
2018-06-30T21:56:02.652Z,55.70
2018-06-30T21:58:30.680Z,55.30
2018-06-30T22:01:04.160Z,54.60
2018-06-30T22:03:32.200Z,55.10
2018-06-30T22:06:00.245Z,56.00
2018-06-30T22:08:28.285Z,55.60
2018-06-30T22:10:56.423Z,56.40
2018-06-30T22:13:24.369Z,56.00
2018-06-30T22:15:52.417Z,56.50
2018-06-30T22:18:20.461Z,55.70
2018-06-30T22:20:48.510Z,56.10
2018-06-30T22:23:16.590Z,55.50
2018-06-30T22:25:44.617Z,55.00
2018-06-30T22:28:12.661Z,55.00
2018-06-30T22:30:40.710Z,53.60
2018-06-30T22:33:08.736Z,55.80
2018-06-30T22:35:36.785Z,54.00
2018-06-30T22:38:05.272Z,56.50
2018-06-30T22:40:33.324Z,55.90
2018-06-30T22:43:01.377Z,56.90
2018-06-30T22:45:29.413Z,56.50
2018-06-30T22:47:57.462Z,55.60
2018-06-30T22:50:25.521Z,56.20
2018-06-30T22:52:53.680Z,56.80
2018-06-30T22:55:21.717Z,57.00
2018-06-30T22:57:49.765Z,55.70
2018-06-30T23:00:18.286Z,56.20
2018-06-30T23:02:46.347Z,56.50
2018-06-30T23:05:14.477Z,56.60
2018-06-30T23:07:42.534Z,56.30
2018-06-30T23:10:10.765Z,54.80
2018-06-30T23:12:39.166Z,55.30
2018-06-30T23:15:07.510Z,54.40
2018-06-30T23:17:35.562Z,54.40
2018-06-30T23:20:03.617Z,55.30
2018-06-30T23:22:46.572Z,56.30
2018-06-30T23:25:14.618Z,57.50
2018-06-30T23:27:42.663Z,58.40
2018-06-30T23:30:10.722Z,58.40
2018-06-30T23:32:38.778Z,58.20
2018-06-30T23:35:06.809Z,58.10
2018-06-30T23:37:34.845Z,57.50
2018-06-30T23:40:02.917Z,57.50
2018-06-30T23:42:31.021Z,57.80
2018-06-30T23:44:59.070Z,57.70
2018-06-30T23:47:27.253Z,57.00
2018-06-30T23:49:55.300Z,56.80
2018-06-30T23:52:23.336Z,56.40
2018-06-30T23:54:51.388Z,55.90
2018-06-30T23:57:19.420Z,57.10
2018-06-30T23:59:47.477Z,56.70
